sensor_id;sensor_type;location;lat;lon;timestamp;P1;durP1;ratioP1;P2;durP2;ratioP2
43996;SDS011;34318;45.818;15.964;2023-01-28T00:01:52;15.80;;;11.23;;
43996;SDS011;34318;45.818;15.964;2023-01-28T00:04:19;12.02;;;10.75;;
43996;SDS011;34318;45.818;15.964;2023-01-28T00:06:47;14.38;;;11.63;;
43996;SDS011;34318;45.818;15.964;2023-01-28T00:09:14;12.73;;;11.50;;
43996;SDS011;34318;45.818;15.964;2023-01-28T00:11:41;12.73;;;11.27;;
43996;SDS011;34318;45.818;15.964;2023-01-28T00:14:09;11.80;;;10.57;;
43996;SDS011;34318;45.818;15.964;2023-01-28T00:16:37;13.45;;;11.40;;
43996;SDS011;34318;45.818;15.964;2023-01-28T00:19:04;14.45;;;11.13;;
43996;SDS011;34318;45.818;15.964;2023-01-28T00:21:32;14.32;;;10.98;;
43996;SDS011;34318;45.818;15.964;2023-01-28T00:23:59;15.30;;;11.32;;
43996;SDS011;34318;45.818;15.964;2023-01-28T00:26:26;13.45;;;12.02;;
43996;SDS011;34318;45.818;15.964;2023-01-28T00:28:53;14.75;;;11.10;;
43996;SDS011;34318;45.818;15.964;2023-01-28T00:31:21;27.33;;;12.65;;
43996;SDS011;34318;45.818;15.964;2023-01-28T00:33:50;12.50;;;11.30;;
43996;SDS011;34318;45.818;15.964;2023-01-28T00:36:18;13.20;;;11.30;;
43996;SDS011;34318;45.818;15.964;2023-01-28T00:38:49;11.10;;;9.98;;
43996;SDS011;34318;45.818;15.964;2023-01-28T00:41:17;12.57;;;11.25;;
43996;SDS011;34318;45.818;15.964;2023-01-28T00:43:47;12.50;;;11.23;;
43996;SDS011;34318;45.818;15.964;2023-01-28T00:46:14;12.23;;;10.52;;
43996;SDS011;34318;45.818;15.964;2023-01-28T00:48:42;12.48;;;10.80;;
43996;SDS011;34318;45.818;15.964;2023-01-28T00:51:11;12.48;;;11.38;;
43996;SDS011;34318;45.818;15.964;2023-01-28T00:53:38;12.18;;;10.90;;
43996;SDS011;34318;45.818;15.964;2023-01-28T00:56:06;11.73;;;10.63;;
43996;SDS011;34318;45.818;15.964;2023-01-28T00:58:34;12.57;;;11.35;;
43996;SDS011;34318;45.818;15.964;2023-01-28T01:01:11;12.85;;;11.55;;
43996;SDS011;34318;45.818;15.964;2023-01-28T01:03:39;12.55;;;11.30;;
43996;SDS011;34318;45.818;15.964;2023-01-28T01:06:06;13.70;;;11.52;;
43996;SDS011;34318;45.818;15.964;2023-01-28T01:08:34;12.10;;;10.80;;
43996;SDS011;34318;45.818;15.964;2023-01-28T01:11:05;13.02;;;11.63;;
43996;SDS011;34318;45.818;15.964;2023-01-28T01:13:33;15.43;;;12.00;;
43996;SDS011;34318;45.818;15.964;2023-01-28T01:16:07;12.05;;;10.95;;
43996;SDS011;34318;45.818;15.964;2023-01-28T01:18:36;11.50;;;10.32;;
43996;SDS011;34318;45.818;15.964;2023-01-28T01:21:07;12.55;;;11.25;;
43996;SDS011;34318;45.818;15.964;2023-01-28T01:23:35;12.27;;;11.07;;
43996;SDS011;34318;45.818;15.964;2023-01-28T01:26:02;12.57;;;11.27;;
43996;SDS011;34318;45.818;15.964;2023-01-28T01:28:30;14.02;;;12.60;;
43996;SDS011;34318;45.818;15.964;2023-01-28T01:30:58;13.23;;;11.95;;
43996;SDS011;34318;45.818;15.964;2023-01-28T01:33:29;14.23;;;11.55;;
43996;SDS011;34318;45.818;15.964;2023-01-28T01:35:57;12.52;;;11.25;;
43996;SDS011;34318;45.818;15.964;2023-01-28T01:38:24;12.60;;;11.40;;
43996;SDS011;34318;45.818;15.964;2023-01-28T01:40:55;13.27;;;11.98;;
43996;SDS011;34318;45.818;15.964;2023-01-28T01:43:23;13.52;;;11.65;;
43996;SDS011;34318;45.818;15.964;2023-01-28T01:45:52;13.10;;;11.77;;
43996;SDS011;34318;45.818;15.964;2023-01-28T01:48:30;12.90;;;11.60;;
43996;SDS011;34318;45.818;15.964;2023-01-28T01:51:08;12.50;;;11.30;;
43996;SDS011;34318;45.818;15.964;2023-01-28T01:53:37;12.43;;;11.18;;
43996;SDS011;34318;45.818;15.964;2023-01-28T01:56:06;13.68;;;12.30;;
43996;SDS011;34318;45.818;15.964;2023-01-28T01:58:34;14.10;;;11.02;;
43996;SDS011;34318;45.818;15.964;2023-01-28T02:01:03;13.75;;;11.55;;
43996;SDS011;34318;45.818;15.964;2023-01-28T02:03:32;12.32;;;11.07;;
43996;SDS011;34318;45.818;15.964;2023-01-28T02:06:03;12.32;;;11.13;;
43996;SDS011;34318;45.818;15.964;2023-01-28T02:08:30;13.02;;;11.43;;
43996;SDS011;34318;45.818;15.964;2023-01-28T02:10:58;12.52;;;11.23;;
43996;SDS011;34318;45.818;15.964;2023-01-28T02:13:27;11.10;;;10.18;;
43996;SDS011;34318;45.818;15.964;2023-01-28T02:15:56;13.48;;;12.18;;
43996;SDS011;34318;45.818;15.964;2023-01-28T02:18:25;11.93;;;10.82;;
43996;SDS011;34318;45.818;15.964;2023-01-28T02:23:38;12.25;;;11.02;;
43996;SDS011;34318;45.818;15.964;2023-01-28T02:26:22;12.85;;;11.43;;
43996;SDS011;34318;45.818;15.964;2023-01-28T02:36:57;11.93;;;10.82;;
43996;SDS011;34318;45.818;15.964;2023-01-28T02:39:28;12.60;;;11.32;;
43996;SDS011;34318;45.818;15.964;2023-01-28T02:41:57;12.82;;;11.57;;
43996;SDS011;34318;45.818;15.964;2023-01-28T02:44:25;13.95;;;11.73;;
43996;SDS011;34318;45.818;15.964;2023-01-28T02:46:53;13.45;;;12.15;;
43996;SDS011;34318;45.818;15.964;2023-01-28T02:57:55;12.20;;;11.00;;
43996;SDS011;34318;45.818;15.964;2023-01-28T03:02:59;12.45;;;11.35;;
43996;SDS011;34318;45.818;15.964;2023-01-28T03:05:35;13.43;;;12.07;;
43996;SDS011;34318;45.818;15.964;2023-01-28T03:08:03;12.88;;;11.07;;
43996;SDS011;34318;45.818;15.964;2023-01-28T03:10:52;12.18;;;11.02;;
43996;SDS011;34318;45.818;15.964;2023-01-28T03:13:40;12.15;;;10.98;;
43996;SDS011;34318;45.818;15.964;2023-01-28T03:16:28;13.13;;;11.85;;
43996;SDS011;34318;45.818;15.964;2023-01-28T03:19:14;12.32;;;11.20;;
43996;SDS011;34318;45.818;15.964;2023-01-28T03:22:01;11.95;;;10.85;;
43996;SDS011;34318;45.818;15.964;2023-01-28T03:24:49;12.80;;;11.65;;
43996;SDS011;34318;45.818;15.964;2023-01-28T03:30:24;12.38;;;11.05;;
43996;SDS011;34318;45.818;15.964;2023-01-28T03:33:11;12.10;;;10.88;;
43996;SDS011;34318;45.818;15.964;2023-01-28T03:35:58;12.55;;;11.27;;
43996;SDS011;34318;45.818;15.964;2023-01-28T03:38:44;12.85;;;11.65;;
43996;SDS011;34318;45.818;15.964;2023-01-28T03:41:19;16.15;;;11.88;;
43996;SDS011;34318;45.818;15.964;2023-01-28T03:43:47;13.07;;;11.77;;
43996;SDS011;34318;45.818;15.964;2023-01-28T03:46:14;11.70;;;10.63;;
43996;SDS011;34318;45.818;15.964;2023-01-28T03:48:42;12.68;;;11.43;;
43996;SDS011;34318;45.818;15.964;2023-01-28T03:51:09;13.45;;;12.05;;
43996;SDS011;34318;45.818;15.964;2023-01-28T03:53:37;12.02;;;10.75;;
43996;SDS011;34318;45.818;15.964;2023-01-28T03:56:05;12.25;;;11.00;;
43996;SDS011;34318;45.818;15.964;2023-01-28T03:58:32;12.13;;;10.93;;
43996;SDS011;34318;45.818;15.964;2023-01-28T04:01:18;12.33;;;11.13;;
43996;SDS011;34318;45.818;15.964;2023-01-28T04:03:45;12.55;;;11.35;;
43996;SDS011;34318;45.818;15.964;2023-01-28T04:06:12;12.43;;;11.13;;
43996;SDS011;34318;45.818;15.964;2023-01-28T04:08:40;12.38;;;11.18;;
43996;SDS011;34318;45.818;15.964;2023-01-28T04:11:11;12.45;;;11.27;;
43996;SDS011;34318;45.818;15.964;2023-01-28T04:13:41;12.13;;;10.75;;
43996;SDS011;34318;45.818;15.964;2023-01-28T04:16:09;12.13;;;11.02;;
43996;SDS011;34318;45.818;15.964;2023-01-28T04:18:36;12.25;;;11.05;;
43996;SDS011;34318;45.818;15.964;2023-01-28T04:21:04;12.13;;;10.98;;
43996;SDS011;34318;45.818;15.964;2023-01-28T04:23:31;12.52;;;11.40;;
43996;SDS011;34318;45.818;15.964;2023-01-28T04:25:58;13.02;;;11.73;;
43996;SDS011;34318;45.818;15.964;2023-01-28T04:28:25;11.70;;;10.57;;
43996;SDS011;34318;45.818;15.964;2023-01-28T04:30:52;12.85;;;11.55;;
43996;SDS011;34318;45.818;15.964;2023-01-28T04:33:20;12.52;;;11.15;;
43996;SDS011;34318;45.818;15.964;2023-01-28T04:35:47;12.93;;;11.63;;
43996;SDS011;34318;45.818;15.964;2023-01-28T04:38:14;13.05;;;10.57;;
43996;SDS011;34318;45.818;15.964;2023-01-28T04:40:41;12.70;;;11.52;;
43996;SDS011;34318;45.818;15.964;2023-01-28T04:43:08;12.00;;;10.90;;
43996;SDS011;34318;45.818;15.964;2023-01-28T04:45:36;12.70;;;11.40;;
43996;SDS011;34318;45.818;15.964;2023-01-28T04:48:03;12.60;;;11.40;;
43996;SDS011;34318;45.818;15.964;2023-01-28T04:50:30;12.57;;;11.25;;
43996;SDS011;34318;45.818;15.964;2023-01-28T04:52:57;12.15;;;10.90;;
43996;SDS011;34318;45.818;15.964;2023-01-28T04:55:24;12.10;;;11.00;;
43996;SDS011;34318;45.818;15.964;2023-01-28T04:57:51;12.50;;;11.32;;
43996;SDS011;34318;45.818;15.964;2023-01-28T05:00:19;12.48;;;11.27;;
43996;SDS011;34318;45.818;15.964;2023-01-28T05:02:46;12.50;;;11.40;;
43996;SDS011;34318;45.818;15.964;2023-01-28T05:05:13;12.90;;;11.70;;
43996;SDS011;34318;45.818;15.964;2023-01-28T05:07:41;12.80;;;11.60;;
43996;SDS011;34318;45.818;15.964;2023-01-28T05:10:08;12.73;;;11.43;;
43996;SDS011;34318;45.818;15.964;2023-01-28T05:12:36;12.70;;;11.43;;
43996;SDS011;34318;45.818;15.964;2023-01-28T05:15:03;13.10;;;11.90;;
43996;SDS011;34318;45.818;15.964;2023-01-28T05:17:30;13.07;;;11.18;;
43996;SDS011;34318;45.818;15.964;2023-01-28T05:19:57;15.02;;;12.10;;
43996;SDS011;34318;45.818;15.964;2023-01-28T05:22:25;13.80;;;12.45;;
43996;SDS011;34318;45.818;15.964;2023-01-28T05:24:52;12.43;;;11.32;;
43996;SDS011;34318;45.818;15.964;2023-01-28T05:27:19;11.63;;;10.52;;
43996;SDS011;34318;45.818;15.964;2023-01-28T05:29:46;13.32;;;11.93;;
43996;SDS011;34318;45.818;15.964;2023-01-28T05:32:13;12.60;;;11.30;;
43996;SDS011;34318;45.818;15.964;2023-01-28T05:34:40;12.18;;;11.07;;
43996;SDS011;34318;45.818;15.964;2023-01-28T05:37:08;11.60;;;10.52;;
43996;SDS011;34318;45.818;15.964;2023-01-28T05:39:35;11.50;;;10.40;;
43996;SDS011;34318;45.818;15.964;2023-01-28T05:42:02;11.82;;;10.73;;
43996;SDS011;34318;45.818;15.964;2023-01-28T05:44:29;11.63;;;10.52;;
43996;SDS011;34318;45.818;15.964;2023-01-28T05:46:56;12.05;;;10.85;;
43996;SDS011;34318;45.818;15.964;2023-01-28T05:49:23;11.88;;;10.80;;
43996;SDS011;34318;45.818;15.964;2023-01-28T05:51:51;12.13;;;11.02;;
43996;SDS011;34318;45.818;15.964;2023-01-28T05:54:18;12.60;;;11.38;;
43996;SDS011;34318;45.818;15.964;2023-01-28T05:56:46;11.52;;;10.43;;
43996;SDS011;34318;45.818;15.964;2023-01-28T05:59:13;12.15;;;10.95;;
43996;SDS011;34318;45.818;15.964;2023-01-28T06:01:40;12.90;;;11.02;;
43996;SDS011;34318;45.818;15.964;2023-01-28T06:04:08;11.65;;;10.55;;
43996;SDS011;34318;45.818;15.964;2023-01-28T06:06:35;11.65;;;10.52;;
43996;SDS011;34318;45.818;15.964;2023-01-28T06:09:02;11.73;;;10.52;;
43996;SDS011;34318;45.818;15.964;2023-01-28T06:11:29;11.45;;;10.35;;
43996;SDS011;34318;45.818;15.964;2023-01-28T06:13:56;12.35;;;11.10;;
43996;SDS011;34318;45.818;15.964;2023-01-28T06:16:23;11.80;;;10.70;;
43996;SDS011;34318;45.818;15.964;2023-01-28T06:18:51;10.38;;;9.38;;
43996;SDS011;34318;45.818;15.964;2023-01-28T06:21:18;13.65;;;11.63;;
43996;SDS011;34318;45.818;15.964;2023-01-28T06:23:45;13.07;;;11.77;;
43996;SDS011;34318;45.818;15.964;2023-01-28T06:26:12;11.70;;;10.43;;
43996;SDS011;34318;45.818;15.964;2023-01-28T06:28:39;12.85;;;11.57;;
43996;SDS011;34318;45.818;15.964;2023-01-28T06:31:07;12.23;;;11.13;;
43996;SDS011;34318;45.818;15.964;2023-01-28T06:33:34;12.43;;;11.23;;
43996;SDS011;34318;45.818;15.964;2023-01-28T06:36:04;12.25;;;10.60;;
43996;SDS011;34318;45.818;15.964;2023-01-28T06:38:31;13.40;;;12.05;;
43996;SDS011;34318;45.818;15.964;2023-01-28T06:40:59;13.70;;;12.27;;
43996;SDS011;34318;45.818;15.964;2023-01-28T06:43:26;13.32;;;11.82;;
43996;SDS011;34318;45.818;15.964;2023-01-28T06:45:56;12.70;;;11.38;;
43996;SDS011;34318;45.818;15.964;2023-01-28T06:48:23;13.75;;;12.32;;
43996;SDS011;34318;45.818;15.964;2023-01-28T06:50:50;13.00;;;11.57;;
43996;SDS011;34318;45.818;15.964;2023-01-28T06:53:18;12.75;;;11.45;;
43996;SDS011;34318;45.818;15.964;2023-01-28T06:55:45;13.77;;;12.48;;
43996;SDS011;34318;45.818;15.964;2023-01-28T06:58:12;16.48;;;12.95;;
43996;SDS011;34318;45.818;15.964;2023-01-28T07:00:39;13.25;;;11.57;;
43996;SDS011;34318;45.818;15.964;2023-01-28T07:03:07;14.57;;;13.05;;
43996;SDS011;34318;45.818;15.964;2023-01-28T07:05:34;14.32;;;12.90;;
43996;SDS011;34318;45.818;15.964;2023-01-28T07:08:01;15.23;;;13.10;;
43996;SDS011;34318;45.818;15.964;2023-01-28T07:10:29;16.98;;;12.68;;
43996;SDS011;34318;45.818;15.964;2023-01-28T07:12:56;13.68;;;12.25;;
43996;SDS011;34318;45.818;15.964;2023-01-28T07:15:23;15.43;;;13.02;;
43996;SDS011;34318;45.818;15.964;2023-01-28T07:17:50;15.82;;;12.55;;
43996;SDS011;34318;45.818;15.964;2023-01-28T07:20:17;16.23;;;12.95;;
43996;SDS011;34318;45.818;15.964;2023-01-28T07:22:45;14.00;;;12.70;;
43996;SDS011;34318;45.818;15.964;2023-01-28T07:25:12;13.85;;;12.23;;
43996;SDS011;34318;45.818;15.964;2023-01-28T07:27:49;15.30;;;12.35;;
43996;SDS011;34318;45.818;15.964;2023-01-28T07:30:18;19.67;;;14.48;;
43996;SDS011;34318;45.818;15.964;2023-01-28T07:32:46;21.67;;;13.55;;
43996;SDS011;34318;45.818;15.964;2023-01-28T07:35:13;18.50;;;13.82;;
43996;SDS011;34318;45.818;15.964;2023-01-28T07:37:41;23.25;;;16.92;;
43996;SDS011;34318;45.818;15.964;2023-01-28T07:40:08;25.58;;;19.38;;
43996;SDS011;34318;45.818;15.964;2023-01-28T07:42:36;20.48;;;17.88;;
43996;SDS011;34318;45.818;15.964;2023-01-28T07:45:04;20.00;;;16.75;;
43996;SDS011;34318;45.818;15.964;2023-01-28T07:47:31;21.05;;;15.85;;
43996;SDS011;34318;45.818;15.964;2023-01-28T07:49:58;22.00;;;15.38;;
43996;SDS011;34318;45.818;15.964;2023-01-28T07:52:26;20.42;;;16.25;;
43996;SDS011;34318;45.818;15.964;2023-01-28T07:54:53;25.33;;;15.88;;
43996;SDS011;34318;45.818;15.964;2023-01-28T07:57:20;19.23;;;15.63;;
43996;SDS011;34318;45.818;15.964;2023-01-28T07:59:52;19.27;;;14.88;;
43996;SDS011;34318;45.818;15.964;2023-01-28T08:02:19;19.95;;;14.93;;
43996;SDS011;34318;45.818;15.964;2023-01-28T08:04:46;17.98;;;15.05;;
43996;SDS011;34318;45.818;15.964;2023-01-28T08:07:13;17.90;;;14.23;;
43996;SDS011;34318;45.818;15.964;2023-01-28T08:09:40;22.58;;;15.38;;
43996;SDS011;34318;45.818;15.964;2023-01-28T08:12:08;15.80;;;14.02;;
43996;SDS011;34318;45.818;15.964;2023-01-28T08:14:35;18.38;;;14.77;;
43996;SDS011;34318;45.818;15.964;2023-01-28T08:17:02;19.52;;;15.23;;
43996;SDS011;34318;45.818;15.964;2023-01-28T08:19:29;18.77;;;14.45;;
43996;SDS011;34318;45.818;15.964;2023-01-28T08:21:56;17.23;;;13.88;;
43996;SDS011;34318;45.818;15.964;2023-01-28T08:24:23;18.25;;;14.25;;
43996;SDS011;34318;45.818;15.964;2023-01-28T08:26:51;18.92;;;14.20;;
43996;SDS011;34318;45.818;15.964;2023-01-28T08:29:18;22.40;;;15.05;;
43996;SDS011;34318;45.818;15.964;2023-01-28T08:31:45;19.95;;;14.32;;
43996;SDS011;34318;45.818;15.964;2023-01-28T08:34:12;22.02;;;15.27;;
43996;SDS011;34318;45.818;15.964;2023-01-28T08:36:39;16.17;;;14.10;;
43996;SDS011;34318;45.818;15.964;2023-01-28T08:39:07;19.80;;;14.88;;
43996;SDS011;34318;45.818;15.964;2023-01-28T08:41:34;16.13;;;14.13;;
43996;SDS011;34318;45.818;15.964;2023-01-28T08:44:01;18.60;;;14.18;;
43996;SDS011;34318;45.818;15.964;2023-01-28T08:46:28;17.48;;;14.88;;
43996;SDS011;34318;45.818;15.964;2023-01-28T08:48:56;16.85;;;13.50;;
43996;SDS011;34318;45.818;15.964;2023-01-28T08:51:23;17.85;;;14.38;;
43996;SDS011;34318;45.818;15.964;2023-01-28T08:53:50;18.15;;;14.60;;
43996;SDS011;34318;45.818;15.964;2023-01-28T08:56:17;15.93;;;14.23;;
43996;SDS011;34318;45.818;15.964;2023-01-28T08:58:44;14.95;;;13.40;;
43996;SDS011;34318;45.818;15.964;2023-01-28T09:01:12;15.18;;;13.50;;
43996;SDS011;34318;45.818;15.964;2023-01-28T09:03:39;16.60;;;13.90;;
43996;SDS011;34318;45.818;15.964;2023-01-28T09:06:06;15.55;;;12.98;;
43996;SDS011;34318;45.818;15.964;2023-01-28T09:08:33;17.55;;;13.20;;
43996;SDS011;34318;45.818;15.964;2023-01-28T09:11:01;15.52;;;13.40;;
43996;SDS011;34318;45.818;15.964;2023-01-28T09:13:28;15.32;;;13.73;;
43996;SDS011;34318;45.818;15.964;2023-01-28T09:15:55;14.82;;;13.32;;
43996;SDS011;34318;45.818;15.964;2023-01-28T09:18:22;17.35;;;12.73;;
43996;SDS011;34318;45.818;15.964;2023-01-28T09:20:49;15.85;;;13.93;;
43996;SDS011;34318;45.818;15.964;2023-01-28T09:23:17;17.52;;;14.18;;
43996;SDS011;34318;45.818;15.964;2023-01-28T09:25:44;13.65;;;12.13;;
43996;SDS011;34318;45.818;15.964;2023-01-28T09:28:11;14.45;;;12.85;;
43996;SDS011;34318;45.818;15.964;2023-01-28T09:30:38;16.88;;;14.05;;
43996;SDS011;34318;45.818;15.964;2023-01-28T09:33:06;14.48;;;12.63;;
43996;SDS011;34318;45.818;15.964;2023-01-28T09:35:33;15.73;;;13.32;;
43996;SDS011;34318;45.818;15.964;2023-01-28T09:38:02;14.27;;;12.73;;
43996;SDS011;34318;45.818;15.964;2023-01-28T09:47:57;15.77;;;12.38;;
43996;SDS011;34318;45.818;15.964;2023-01-28T09:50:33;13.73;;;12.02;;
43996;SDS011;34318;45.818;15.964;2023-01-28T09:53:05;14.73;;;13.18;;
43996;SDS011;34318;45.818;15.964;2023-01-28T09:55:37;13.90;;;12.50;;
43996;SDS011;34318;45.818;15.964;2023-01-28T09:58:06;13.63;;;12.18;;
43996;SDS011;34318;45.818;15.964;2023-01-28T10:00:41;14.75;;;13.15;;
43996;SDS011;34318;45.818;15.964;2023-01-28T10:18:55;16.52;;;12.82;;
43996;SDS011;34318;45.818;15.964;2023-01-28T10:21:27;18.08;;;12.65;;
43996;SDS011;34318;45.818;15.964;2023-01-28T10:26:34;20.02;;;11.98;;
43996;SDS011;34318;45.818;15.964;2023-01-28T10:29:08;22.60;;;13.65;;
43996;SDS011;34318;45.818;15.964;2023-01-28T10:31:39;20.13;;;11.80;;
43996;SDS011;34318;45.818;15.964;2023-01-28T10:34:08;14.80;;;11.65;;
43996;SDS011;34318;45.818;15.964;2023-01-28T10:36:35;18.75;;;13.77;;
43996;SDS011;34318;45.818;15.964;2023-01-28T10:39:03;14.70;;;11.82;;
43996;SDS011;34318;45.818;15.964;2023-01-28T10:41:31;16.27;;;12.60;;
43996;SDS011;34318;45.818;15.964;2023-01-28T10:43:59;13.10;;;11.82;;
43996;SDS011;34318;45.818;15.964;2023-01-28T10:46:28;16.00;;;12.00;;
43996;SDS011;34318;45.818;15.964;2023-01-28T10:51:39;16.85;;;12.52;;
43996;SDS011;34318;45.818;15.964;2023-01-28T10:54:26;23.60;;;14.30;;
43996;SDS011;34318;45.818;15.964;2023-01-28T10:56:54;15.00;;;12.27;;
43996;SDS011;34318;45.818;15.964;2023-01-28T10:59:33;16.67;;;13.38;;
43996;SDS011;34318;45.818;15.964;2023-01-28T11:02:03;14.68;;;12.07;;
43996;SDS011;34318;45.818;15.964;2023-01-28T11:04:32;18.50;;;13.85;;
43996;SDS011;34318;45.818;15.964;2023-01-28T11:07:00;17.70;;;12.48;;
43996;SDS011;34318;45.818;15.964;2023-01-28T11:09:29;20.38;;;13.23;;
43996;SDS011;34318;45.818;15.964;2023-01-28T11:11:57;14.82;;;13.15;;
43996;SDS011;34318;45.818;15.964;2023-01-28T11:14:25;20.48;;;13.63;;
43996;SDS011;34318;45.818;15.964;2023-01-28T11:16:53;13.75;;;12.35;;
43996;SDS011;34318;45.818;15.964;2023-01-28T11:19:24;13.23;;;11.98;;
43996;SDS011;34318;45.818;15.964;2023-01-28T11:21:54;15.82;;;13.25;;
43996;SDS011;34318;45.818;15.964;2023-01-28T11:24:23;22.23;;;12.20;;
43996;SDS011;34318;45.818;15.964;2023-01-28T11:26:52;14.23;;;12.65;;
43996;SDS011;34318;45.818;15.964;2023-01-28T11:29:21;16.52;;;13.25;;
43996;SDS011;34318;45.818;15.964;2023-01-28T11:31:50;14.38;;;11.95;;
43996;SDS011;34318;45.818;15.964;2023-01-28T11:34:18;17.42;;;12.75;;
43996;SDS011;34318;45.818;15.964;2023-01-28T11:36:49;17.13;;;12.65;;
43996;SDS011;34318;45.818;15.964;2023-01-28T11:39:23;17.02;;;13.13;;
43996;SDS011;34318;45.818;15.964;2023-01-28T11:41:53;14.00;;;11.70;;
43996;SDS011;34318;45.818;15.964;2023-01-28T11:44:24;14.73;;;12.82;;
43996;SDS011;34318;45.818;15.964;2023-01-28T11:49:44;20.00;;;12.68;;
43996;SDS011;34318;45.818;15.964;2023-01-28T11:58:17;14.73;;;12.85;;
43996;SDS011;34318;45.818;15.964;2023-01-28T12:05:50;15.52;;;12.48;;
43996;SDS011;34318;45.818;15.964;2023-01-28T12:08:22;15.63;;;13.13;;
43996;SDS011;34318;45.818;15.964;2023-01-28T12:16:28;19.35;;;13.23;;
43996;SDS011;34318;45.818;15.964;2023-01-28T12:21:50;14.32;;;12.77;;
43996;SDS011;34318;45.818;15.964;2023-01-28T12:27:00;15.00;;;13.27;;
43996;SDS011;34318;45.818;15.964;2023-01-28T12:40:11;12.43;;;11.10;;
43996;SDS011;34318;45.818;15.964;2023-01-28T12:42:41;13.15;;;11.27;;
43996;SDS011;34318;45.818;15.964;2023-01-28T12:45:22;13.27;;;11.88;;
43996;SDS011;34318;45.818;15.964;2023-01-28T12:47:57;15.23;;;12.23;;
43996;SDS011;34318;45.818;15.964;2023-01-28T12:50:35;13.70;;;11.97;;
43996;SDS011;34318;45.818;15.964;2023-01-28T12:55:44;15.18;;;12.63;;
43996;SDS011;34318;45.818;15.964;2023-01-28T12:58:16;13.93;;;11.05;;
43996;SDS011;34318;45.818;15.964;2023-01-28T13:00:47;13.80;;;11.90;;
43996;SDS011;34318;45.818;15.964;2023-01-28T13:05:59;11.88;;;10.65;;
43996;SDS011;34318;45.818;15.964;2023-01-28T13:08:28;12.85;;;11.35;;
43996;SDS011;34318;45.818;15.964;2023-01-28T13:10:56;14.48;;;12.00;;
43996;SDS011;34318;45.818;15.964;2023-01-28T13:13:28;13.52;;;12.13;;
43996;SDS011;34318;45.818;15.964;2023-01-28T13:15:56;13.68;;;11.18;;
43996;SDS011;34318;45.818;15.964;2023-01-28T13:21:06;13.27;;;11.88;;
43996;SDS011;34318;45.818;15.964;2023-01-28T13:26:10;13.35;;;11.05;;
43996;SDS011;34318;45.818;15.964;2023-01-28T13:28:37;13.68;;;12.15;;
43996;SDS011;34318;45.818;15.964;2023-01-28T13:31:08;20.75;;;12.65;;
43996;SDS011;34318;45.818;15.964;2023-01-28T13:33:40;12.32;;;11.05;;
43996;SDS011;34318;45.818;15.964;2023-01-28T13:38:34;18.25;;;12.55;;
43996;SDS011;34318;45.818;15.964;2023-01-28T13:41:02;14.43;;;12.65;;
43996;SDS011;34318;45.818;15.964;2023-01-28T13:46:00;13.73;;;11.80;;
43996;SDS011;34318;45.818;15.964;2023-01-28T13:53:55;16.23;;;13.38;;
43996;SDS011;34318;45.818;15.964;2023-01-28T13:56:27;19.70;;;14.02;;
43996;SDS011;34318;45.818;15.964;2023-01-28T14:04:10;19.92;;;14.75;;
43996;SDS011;34318;45.818;15.964;2023-01-28T14:14:46;18.30;;;14.48;;
43996;SDS011;34318;45.818;15.964;2023-01-28T14:19:46;15.05;;;13.45;;
43996;SDS011;34318;45.818;15.964;2023-01-28T14:22:16;17.20;;;14.95;;
43996;SDS011;34318;45.818;15.964;2023-01-28T14:24:44;17.00;;;14.57;;
43996;SDS011;34318;45.818;15.964;2023-01-28T14:27:26;16.55;;;14.60;;
43996;SDS011;34318;45.818;15.964;2023-01-28T14:30:12;17.67;;;14.35;;
43996;SDS011;34318;45.818;15.964;2023-01-28T14:32:45;15.77;;;14.20;;
43996;SDS011;34318;45.818;15.964;2023-01-28T14:35:32;17.00;;;14.00;;
43996;SDS011;34318;45.818;15.964;2023-01-28T14:38:05;16.70;;;14.93;;
43996;SDS011;34318;45.818;15.964;2023-01-28T14:40:35;21.63;;;13.88;;
43996;SDS011;34318;45.818;15.964;2023-01-28T14:43:05;18.27;;;14.20;;
43996;SDS011;34318;45.818;15.964;2023-01-28T14:46:08;17.85;;;14.10;;
43996;SDS011;34318;45.818;15.964;2023-01-28T14:56:21;16.50;;;14.65;;
43996;SDS011;34318;45.818;15.964;2023-01-28T14:58:52;16.48;;;13.23;;
43996;SDS011;34318;45.818;15.964;2023-01-28T15:01:26;14.82;;;13.23;;
43996;SDS011;34318;45.818;15.964;2023-01-28T15:03:53;19.25;;;14.70;;
43996;SDS011;34318;45.818;15.964;2023-01-28T15:06:22;15.35;;;13.77;;
43996;SDS011;34318;45.818;15.964;2023-01-28T15:08:50;15.38;;;12.93;;
43996;SDS011;34318;45.818;15.964;2023-01-28T15:11:21;15.82;;;12.88;;
43996;SDS011;34318;45.818;15.964;2023-01-28T15:13:53;15.13;;;12.73;;
43996;SDS011;34318;45.818;15.964;2023-01-28T15:16:22;16.55;;;12.77;;
43996;SDS011;34318;45.818;15.964;2023-01-28T15:18:50;14.68;;;13.27;;
43996;SDS011;34318;45.818;15.964;2023-01-28T15:21:21;13.85;;;12.40;;
43996;SDS011;34318;45.818;15.964;2023-01-28T15:23:49;16.77;;;13.30;;
43996;SDS011;34318;45.818;15.964;2023-01-28T15:26:20;13.40;;;11.70;;
43996;SDS011;34318;45.818;15.964;2023-01-28T15:28:48;14.73;;;13.07;;
43996;SDS011;34318;45.818;15.964;2023-01-28T15:31:18;15.13;;;11.85;;
43996;SDS011;34318;45.818;15.964;2023-01-28T15:33:54;16.15;;;13.75;;
43996;SDS011;34318;45.818;15.964;2023-01-28T15:36:21;14.55;;;12.65;;
43996;SDS011;34318;45.818;15.964;2023-01-28T15:38:49;14.63;;;12.98;;
43996;SDS011;34318;45.818;15.964;2023-01-28T15:41:17;22.13;;;12.48;;
43996;SDS011;34318;45.818;15.964;2023-01-28T15:43:45;13.68;;;11.85;;
43996;SDS011;34318;45.818;15.964;2023-01-28T15:46:14;13.57;;;12.05;;
43996;SDS011;34318;45.818;15.964;2023-01-28T15:48:42;13.07;;;11.70;;
43996;SDS011;34318;45.818;15.964;2023-01-28T15:53:44;13.18;;;11.77;;
43996;SDS011;34318;45.818;15.964;2023-01-28T15:56:12;13.70;;;12.23;;
43996;SDS011;34318;45.818;15.964;2023-01-28T15:58:41;13.20;;;11.80;;
43996;SDS011;34318;45.818;15.964;2023-01-28T16:03:36;14.25;;;12.73;;
43996;SDS011;34318;45.818;15.964;2023-01-28T16:06:11;13.38;;;11.98;;
43996;SDS011;34318;45.818;15.964;2023-01-28T16:08:58;14.82;;;12.40;;
43996;SDS011;34318;45.818;15.964;2023-01-28T16:11:27;13.60;;;12.25;;
43996;SDS011;34318;45.818;15.964;2023-01-28T16:13:55;12.82;;;11.55;;
43996;SDS011;34318;45.818;15.964;2023-01-28T16:16:26;12.15;;;11.02;;
43996;SDS011;34318;45.818;15.964;2023-01-28T16:18:54;12.48;;;11.27;;
43996;SDS011;34318;45.818;15.964;2023-01-28T16:21:25;13.02;;;11.73;;
43996;SDS011;34318;45.818;15.964;2023-01-28T16:24:17;12.65;;;11.32;;
43996;SDS011;34318;45.818;15.964;2023-01-28T16:26:54;12.60;;;11.32;;
43996;SDS011;34318;45.818;15.964;2023-01-28T16:31:48;12.43;;;11.23;;
43996;SDS011;34318;45.818;15.964;2023-01-28T16:34:16;12.57;;;11.38;;
43996;SDS011;34318;45.818;15.964;2023-01-28T16:36:43;12.15;;;10.95;;
43996;SDS011;34318;45.818;15.964;2023-01-28T16:39:10;11.80;;;10.70;;
43996;SDS011;34318;45.818;15.964;2023-01-28T16:41:38;12.23;;;11.13;;
43996;SDS011;34318;45.818;15.964;2023-01-28T16:44:06;12.32;;;10.95;;